sensor_id;sensor_type;location;lat;lon;timestamp;P1;durP1;ratioP1;P2;durP2;ratioP2
57085;SDS011;42964;42.910;23.792;2023-12-04T00:03:05;14.57;;;11.25;;
57085;SDS011;42964;42.910;23.792;2023-12-04T00:08:04;15.18;;;10.73;;
57085;SDS011;42964;42.910;23.792;2023-12-04T00:13:03;16.15;;;11.43;;
57085;SDS011;42964;42.910;23.792;2023-12-04T00:18:02;16.13;;;11.15;;
57085;SDS011;42964;42.910;23.792;2023-12-04T00:23:01;18.60;;;11.85;;
57085;SDS011;42964;42.910;23.792;2023-12-04T00:28:00;16.45;;;11.15;;
57085;SDS011;42964;42.910;23.792;2023-12-04T00:32:59;16.55;;;11.82;;
57085;SDS011;42964;42.910;23.792;2023-12-04T00:37:58;17.63;;;11.75;;
57085;SDS011;42964;42.910;23.792;2023-12-04T00:42:57;20.92;;;13.90;;
57085;SDS011;42964;42.910;23.792;2023-12-04T00:47:56;15.63;;;10.55;;
57085;SDS011;42964;42.910;23.792;2023-12-04T00:52:55;15.65;;;10.90;;
57085;SDS011;42964;42.910;23.792;2023-12-04T00:57:54;16.05;;;10.48;;
57085;SDS011;42964;42.910;23.792;2023-12-04T01:02:53;16.65;;;11.50;;
57085;SDS011;42964;42.910;23.792;2023-12-04T01:07:52;15.45;;;11.18;;
57085;SDS011;42964;42.910;23.792;2023-12-04T01:12:51;13.40;;;9.40;;
57085;SDS011;42964;42.910;23.792;2023-12-04T01:17:50;14.38;;;9.95;;
57085;SDS011;42964;42.910;23.792;2023-12-04T01:22:49;14.60;;;9.85;;
57085;SDS011;42964;42.910;23.792;2023-12-04T01:27:49;13.80;;;10.40;;
57085;SDS011;42964;42.910;23.792;2023-12-04T01:32:48;15.95;;;10.52;;
57085;SDS011;42964;42.910;23.792;2023-12-04T01:37:47;13.35;;;9.23;;
57085;SDS011;42964;42.910;23.792;2023-12-04T01:42:46;11.27;;;7.72;;
57085;SDS011;42964;42.910;23.792;2023-12-04T01:47:45;12.70;;;9.23;;
57085;SDS011;42964;42.910;23.792;2023-12-04T01:52:46;15.10;;;10.20;;
57085;SDS011;42964;42.910;23.792;2023-12-04T01:57:45;12.60;;;9.13;;
57085;SDS011;42964;42.910;23.792;2023-12-04T02:02:45;12.95;;;9.25;;
57085;SDS011;42964;42.910;23.792;2023-12-04T02:12:44;11.13;;;7.77;;
57085;SDS011;42964;42.910;23.792;2023-12-04T02:17:43;9.02;;;7.85;;
57085;SDS011;42964;42.910;23.792;2023-12-04T02:22:45;10.73;;;8.10;;
57085;SDS011;42964;42.910;23.792;2023-12-04T02:27:49;12.23;;;9.63;;
57085;SDS011;42964;42.910;23.792;2023-12-04T02:32:49;12.05;;;9.05;;
57085;SDS011;42964;42.910;23.792;2023-12-04T02:37:49;10.77;;;9.05;;
57085;SDS011;42964;42.910;23.792;2023-12-04T02:42:49;11.57;;;8.50;;
57085;SDS011;42964;42.910;23.792;2023-12-04T02:47:48;11.63;;;9.25;;
57085;SDS011;42964;42.910;23.792;2023-12-04T02:52:47;11.02;;;8.15;;
57085;SDS011;42964;42.910;23.792;2023-12-04T02:57:46;9.27;;;8.27;;
57085;SDS011;42964;42.910;23.792;2023-12-04T03:02:45;10.02;;;8.48;;
57085;SDS011;42964;42.910;23.792;2023-12-04T03:07:44;11.15;;;8.65;;
57085;SDS011;42964;42.910;23.792;2023-12-04T03:12:44;10.20;;;8.85;;
57085;SDS011;42964;42.910;23.792;2023-12-04T03:17:43;10.10;;;8.90;;
57085;SDS011;42964;42.910;23.792;2023-12-04T03:22:42;21.10;;;14.10;;
57085;SDS011;42964;42.910;23.792;2023-12-04T03:27:41;16.02;;;11.93;;
57085;SDS011;42964;42.910;23.792;2023-12-04T03:32:40;31.45;;;23.20;;
57085;SDS011;42964;42.910;23.792;2023-12-04T03:37:38;18.73;;;12.93;;
57085;SDS011;42964;42.910;23.792;2023-12-04T03:42:37;19.27;;;11.57;;
57085;SDS011;42964;42.910;23.792;2023-12-04T03:47:36;16.25;;;12.50;;
57085;SDS011;42964;42.910;23.792;2023-12-04T03:52:35;18.50;;;13.57;;
57085;SDS011;42964;42.910;23.792;2023-12-04T03:57:34;12.50;;;9.07;;
57085;SDS011;42964;42.910;23.792;2023-12-04T04:02:33;11.57;;;9.25;;
57085;SDS011;42964;42.910;23.792;2023-12-04T04:07:32;11.43;;;8.45;;
57085;SDS011;42964;42.910;23.792;2023-12-04T04:12:31;8.95;;;7.80;;
57085;SDS011;42964;42.910;23.792;2023-12-04T04:17:30;9.40;;;8.27;;
57085;SDS011;42964;42.910;23.792;2023-12-04T04:22:31;11.63;;;9.00;;
57085;SDS011;42964;42.910;23.792;2023-12-04T04:27:33;12.00;;;9.13;;
57085;SDS011;42964;42.910;23.792;2023-12-04T04:32:32;12.30;;;10.38;;
57085;SDS011;42964;42.910;23.792;2023-12-04T04:37:31;12.70;;;10.55;;
57085;SDS011;42964;42.910;23.792;2023-12-04T04:42:30;14.95;;;10.80;;
57085;SDS011;42964;42.910;23.792;2023-12-04T04:47:29;12.63;;;10.10;;
57085;SDS011;42964;42.910;23.792;2023-12-04T04:52:27;13.00;;;10.50;;
57085;SDS011;42964;42.910;23.792;2023-12-04T04:57:26;14.05;;;9.82;;
57085;SDS011;42964;42.910;23.792;2023-12-04T05:02:25;14.82;;;11.32;;
57085;SDS011;42964;42.910;23.792;2023-12-04T05:07:24;14.70;;;10.95;;
57085;SDS011;42964;42.910;23.792;2023-12-04T05:12:23;16.48;;;12.57;;
57085;SDS011;42964;42.910;23.792;2023-12-04T05:17:22;14.52;;;10.80;;
57085;SDS011;42964;42.910;23.792;2023-12-04T05:22:21;13.98;;;11.90;;
57085;SDS011;42964;42.910;23.792;2023-12-04T05:27:20;13.57;;;10.63;;
57085;SDS011;42964;42.910;23.792;2023-12-04T05:32:19;12.30;;;9.48;;
57085;SDS011;42964;42.910;23.792;2023-12-04T05:37:19;13.30;;;9.80;;
57085;SDS011;42964;42.910;23.792;2023-12-04T05:42:18;12.93;;;9.57;;
57085;SDS011;42964;42.910;23.792;2023-12-04T05:47:17;14.85;;;10.60;;
57085;SDS011;42964;42.910;23.792;2023-12-04T05:52:16;15.70;;;11.63;;
57085;SDS011;42964;42.910;23.792;2023-12-04T05:57:15;21.02;;;12.95;;
57085;SDS011;42964;42.910;23.792;2023-12-04T06:02:15;20.35;;;12.70;;
57085;SDS011;42964;42.910;23.792;2023-12-04T06:07:14;18.95;;;12.88;;
57085;SDS011;42964;42.910;23.792;2023-12-04T06:12:13;16.35;;;11.57;;
57085;SDS011;42964;42.910;23.792;2023-12-04T06:17:12;17.00;;;11.73;;
57085;SDS011;42964;42.910;23.792;2023-12-04T06:22:11;19.80;;;13.30;;
57085;SDS011;42964;42.910;23.792;2023-12-04T06:27:11;20.13;;;13.40;;
57085;SDS011;42964;42.910;23.792;2023-12-04T06:32:13;23.02;;;15.73;;
57085;SDS011;42964;42.910;23.792;2023-12-04T06:37:12;28.48;;;18.90;;
57085;SDS011;42964;42.910;23.792;2023-12-04T06:42:12;25.35;;;18.02;;
57085;SDS011;42964;42.910;23.792;2023-12-04T06:52:11;22.63;;;12.27;;
57085;SDS011;42964;42.910;23.792;2023-12-04T06:57:10;15.75;;;11.55;;
57085;SDS011;42964;42.910;23.792;2023-12-04T07:02:09;17.45;;;11.07;;
57085;SDS011;42964;42.910;23.792;2023-12-04T07:07:08;13.52;;;11.15;;
57085;SDS011;42964;42.910;23.792;2023-12-04T07:12:07;14.18;;;9.13;;
57085;SDS011;42964;42.910;23.792;2023-12-04T07:17:06;11.07;;;8.73;;
57085;SDS011;42964;42.910;23.792;2023-12-04T07:22:05;14.20;;;9.50;;
57085;SDS011;42964;42.910;23.792;2023-12-04T07:27:04;14.13;;;10.15;;
57085;SDS011;42964;42.910;23.792;2023-12-04T07:32:03;12.52;;;9.10;;
57085;SDS011;42964;42.910;23.792;2023-12-04T07:37:03;10.40;;;8.95;;
57085;SDS011;42964;42.910;23.792;2023-12-04T07:42:02;12.30;;;7.90;;
57085;SDS011;42964;42.910;23.792;2023-12-04T07:47:01;10.85;;;8.70;;
57085;SDS011;42964;42.910;23.792;2023-12-04T07:52:00;10.50;;;8.50;;
57085;SDS011;42964;42.910;23.792;2023-12-04T07:56:59;11.98;;;7.75;;
57085;SDS011;42964;42.910;23.792;2023-12-04T08:01:58;12.05;;;9.40;;
57085;SDS011;42964;42.910;23.792;2023-12-04T08:06:57;11.35;;;8.63;;
57085;SDS011;42964;42.910;23.792;2023-12-04T08:11:56;9.55;;;7.43;;
57085;SDS011;42964;42.910;23.792;2023-12-04T08:16:55;11.88;;;8.40;;
57085;SDS011;42964;42.910;23.792;2023-12-04T08:21:54;11.88;;;8.57;;
57085;SDS011;42964;42.910;23.792;2023-12-04T08:26:53;14.15;;;11.10;;
57085;SDS011;42964;42.910;23.792;2023-12-04T08:31:52;15.80;;;11.05;;
57085;SDS011;42964;42.910;23.792;2023-12-04T08:36:51;14.65;;;10.82;;
57085;SDS011;42964;42.910;23.792;2023-12-04T08:41:50;13.27;;;10.63;;
57085;SDS011;42964;42.910;23.792;2023-12-04T08:46:49;14.65;;;11.85;;
57085;SDS011;42964;42.910;23.792;2023-12-04T08:51:50;14.60;;;11.57;;
57085;SDS011;42964;42.910;23.792;2023-12-04T08:56:51;14.68;;;11.70;;
57085;SDS011;42964;42.910;23.792;2023-12-04T09:01:50;16.20;;;12.77;;
57085;SDS011;42964;42.910;23.792;2023-12-04T09:06:48;12.93;;;10.30;;
57085;SDS011;42964;42.910;23.792;2023-12-04T09:11:47;10.70;;;9.05;;
57085;SDS011;42964;42.910;23.792;2023-12-04T09:16:46;11.75;;;8.88;;
57085;SDS011;42964;42.910;23.792;2023-12-04T09:21:45;16.30;;;11.73;;
57085;SDS011;42964;42.910;23.792;2023-12-04T09:26:45;12.52;;;8.98;;
57085;SDS011;42964;42.910;23.792;2023-12-04T09:31:44;9.85;;;7.85;;
57085;SDS011;42964;42.910;23.792;2023-12-04T09:36:43;10.02;;;8.57;;
57085;SDS011;42964;42.910;23.792;2023-12-04T09:41:42;12.68;;;9.52;;
57085;SDS011;42964;42.910;23.792;2023-12-04T09:46:42;11.13;;;8.70;;
57085;SDS011;42964;42.910;23.792;2023-12-04T09:51:42;10.68;;;8.60;;
57085;SDS011;42964;42.910;23.792;2023-12-04T09:56:41;14.07;;;9.40;;
57085;SDS011;42964;42.910;23.792;2023-12-04T10:01:40;10.00;;;8.40;;
57085;SDS011;42964;42.910;23.792;2023-12-04T10:06:40;9.75;;;8.68;;
57085;SDS011;42964;42.910;23.792;2023-12-04T10:11:40;9.80;;;8.80;;
57085;SDS011;42964;42.910;23.792;2023-12-04T10:16:39;10.55;;;8.93;;
57085;SDS011;42964;42.910;23.792;2023-12-04T10:21:38;11.48;;;9.55;;
57085;SDS011;42964;42.910;23.792;2023-12-04T10:26:38;12.35;;;9.73;;
57085;SDS011;42964;42.910;23.792;2023-12-04T10:31:47;10.57;;;9.02;;
57085;SDS011;42964;42.910;23.792;2023-12-04T10:36:49;9.55;;;8.55;;
57085;SDS011;42964;42.910;23.792;2023-12-04T10:41:58;11.32;;;8.85;;
57085;SDS011;42964;42.910;23.792;2023-12-04T10:46:59;12.32;;;9.07;;
57085;SDS011;42964;42.910;23.792;2023-12-04T10:51:59;12.48;;;11.18;;
57085;SDS011;42964;42.910;23.792;2023-12-04T10:57:00;17.20;;;12.57;;
57085;SDS011;42964;42.910;23.792;2023-12-04T11:02:02;9.77;;;8.35;;
57085;SDS011;42964;42.910;23.792;2023-12-04T11:07:07;9.15;;;8.25;;
57085;SDS011;42964;42.910;23.792;2023-12-04T11:12:08;10.27;;;7.70;;
57085;SDS011;42964;42.910;23.792;2023-12-04T11:17:13;8.20;;;7.18;;
57085;SDS011;42964;42.910;23.792;2023-12-04T11:22:13;8.90;;;7.15;;
57085;SDS011;42964;42.910;23.792;2023-12-04T11:27:15;9.00;;;8.10;;
57085;SDS011;42964;42.910;23.792;2023-12-04T11:32:16;12.40;;;10.05;;
57085;SDS011;42964;42.910;23.792;2023-12-04T11:37:16;8.85;;;7.95;;
57085;SDS011;42964;42.910;23.792;2023-12-04T11:42:24;8.38;;;7.57;;
57085;SDS011;42964;42.910;23.792;2023-12-04T11:47:24;9.23;;;7.82;;
57085;SDS011;42964;42.910;23.792;2023-12-04T11:52:32;9.30;;;7.10;;
57085;SDS011;42964;42.910;23.792;2023-12-04T11:57:36;8.25;;;7.28;;
57085;SDS011;42964;42.910;23.792;2023-12-04T12:02:39;11.05;;;8.25;;
57085;SDS011;42964;42.910;23.792;2023-12-04T12:07:39;10.32;;;8.75;;
57085;SDS011;42964;42.910;23.792;2023-12-04T12:12:39;13.68;;;10.63;;
57085;SDS011;42964;42.910;23.792;2023-12-04T12:17:39;11.93;;;9.23;;
57085;SDS011;42964;42.910;23.792;2023-12-04T12:22:39;12.95;;;9.18;;
57085;SDS011;42964;42.910;23.792;2023-12-04T12:27:40;9.88;;;8.88;;
57085;SDS011;42964;42.910;23.792;2023-12-04T12:32:39;12.13;;;9.50;;
57085;SDS011;42964;42.910;23.792;2023-12-04T12:37:38;10.65;;;9.60;;
57085;SDS011;42964;42.910;23.792;2023-12-04T12:42:38;10.90;;;8.88;;
57085;SDS011;42964;42.910;23.792;2023-12-04T12:47:47;11.60;;;10.25;;
57085;SDS011;42964;42.910;23.792;2023-12-04T12:52:46;13.55;;;10.07;;
57085;SDS011;42964;42.910;23.792;2023-12-04T12:57:47;13.25;;;10.68;;
57085;SDS011;42964;42.910;23.792;2023-12-04T13:02:46;13.05;;;10.48;;
57085;SDS011;42964;42.910;23.792;2023-12-04T13:07:45;11.20;;;9.50;;
57085;SDS011;42964;42.910;23.792;2023-12-04T13:12:44;10.55;;;9.02;;
57085;SDS011;42964;42.910;23.792;2023-12-04T13:17:43;8.82;;;7.88;;
57085;SDS011;42964;42.910;23.792;2023-12-04T13:22:42;10.98;;;9.45;;
57085;SDS011;42964;42.910;23.792;2023-12-04T13:27:41;11.65;;;8.75;;
57085;SDS011;42964;42.910;23.792;2023-12-04T13:32:40;9.25;;;8.15;;
57085;SDS011;42964;42.910;23.792;2023-12-04T13:37:39;19.58;;;14.88;;
57085;SDS011;42964;42.910;23.792;2023-12-04T13:42:38;23.83;;;14.30;;
57085;SDS011;42964;42.910;23.792;2023-12-04T13:47:56;15.30;;;11.50;;
57085;SDS011;42964;42.910;23.792;2023-12-04T13:52:55;23.52;;;16.00;;
57085;SDS011;42964;42.910;23.792;2023-12-04T13:57:55;20.30;;;12.57;;
57085;SDS011;42964;42.910;23.792;2023-12-04T14:02:56;11.90;;;9.75;;
57085;SDS011;42964;42.910;23.792;2023-12-04T14:08:06;13.60;;;10.07;;
57085;SDS011;42964;42.910;23.792;2023-12-04T14:13:05;11.60;;;9.55;;
57085;SDS011;42964;42.910;23.792;2023-12-04T14:18:04;17.15;;;13.50;;
57085;SDS011;42964;42.910;23.792;2023-12-04T14:23:03;27.98;;;19.70;;
57085;SDS011;42964;42.910;23.792;2023-12-04T14:28:03;40.40;;;20.25;;
57085;SDS011;42964;42.910;23.792;2023-12-04T14:33:02;52.97;;;31.83;;
57085;SDS011;42964;42.910;23.792;2023-12-04T14:38:01;47.90;;;33.17;;
57085;SDS011;42964;42.910;23.792;2023-12-04T14:43:00;34.20;;;21.05;;
57085;SDS011;42964;42.910;23.792;2023-12-04T14:47:59;41.72;;;26.65;;
57085;SDS011;42964;42.910;23.792;2023-12-04T14:52:58;32.13;;;21.15;;
57085;SDS011;42964;42.910;23.792;2023-12-04T14:58:10;21.92;;;13.52;;
57085;SDS011;42964;42.910;23.792;2023-12-04T15:03:21;18.85;;;12.82;;
57085;SDS011;42964;42.910;23.792;2023-12-04T15:08:38;19.63;;;14.70;;
57085;SDS011;42964;42.910;23.792;2023-12-04T15:13:43;14.23;;;10.95;;
57085;SDS011;42964;42.910;23.792;2023-12-04T15:18:59;28.60;;;19.85;;
57085;SDS011;42964;42.910;23.792;2023-12-04T15:24:04;26.45;;;18.40;;
57085;SDS011;42964;42.910;23.792;2023-12-04T15:29:05;33.92;;;20.63;;
57085;SDS011;42964;42.910;23.792;2023-12-04T15:34:04;43.45;;;28.23;;
57085;SDS011;42964;42.910;23.792;2023-12-04T15:39:03;30.33;;;20.42;;
57085;SDS011;42964;42.910;23.792;2023-12-04T15:44:03;22.67;;;17.13;;
57085;SDS011;42964;42.910;23.792;2023-12-04T15:49:02;24.63;;;17.60;;
57085;SDS011;42964;42.910;23.792;2023-12-04T15:54:02;22.08;;;16.95;;
57085;SDS011;42964;42.910;23.792;2023-12-04T15:59:02;21.77;;;15.30;;
57085;SDS011;42964;42.910;23.792;2023-12-04T16:04:00;17.70;;;12.95;;
57085;SDS011;42964;42.910;23.792;2023-12-04T16:08:59;16.50;;;11.15;;
57085;SDS011;42964;42.910;23.792;2023-12-04T16:18:58;22.30;;;14.75;;
57085;SDS011;42964;42.910;23.792;2023-12-04T16:23:57;18.48;;;14.35;;
57085;SDS011;42964;42.910;23.792;2023-12-04T16:28:57;17.88;;;12.95;;
57085;SDS011;42964;42.910;23.792;2023-12-04T16:33:56;64.40;;;40.80;;
57085;SDS011;42964;42.910;23.792;2023-12-04T16:38:55;21.73;;;16.25;;
57085;SDS011;42964;42.910;23.792;2023-12-04T16:43:54;21.45;;;16.80;;
57085;SDS011;42964;42.910;23.792;2023-12-04T16:48:53;16.70;;;13.60;;
57085;SDS011;42964;42.910;23.792;2023-12-04T16:53:52;17.45;;;12.35;;
57085;SDS011;42964;42.910;23.792;2023-12-04T17:03:50;18.75;;;13.88;;
57085;SDS011;42964;42.910;23.792;2023-12-04T17:08:52;18.83;;;13.70;;
57085;SDS011;42964;42.910;23.792;2023-12-04T17:13:51;29.10;;;19.17;;
57085;SDS011;42964;42.910;23.792;2023-12-04T17:18:50;19.17;;;14.20;;
57085;SDS011;42964;42.910;23.792;2023-12-04T17:23:49;19.33;;;14.55;;
57085;SDS011;42964;42.910;23.792;2023-12-04T17:28:48;14.90;;;11.73;;
57085;SDS011;42964;42.910;23.792;2023-12-04T17:33:46;15.05;;;10.35;;
57085;SDS011;42964;42.910;23.792;2023-12-04T17:38:46;15.30;;;11.30;;
57085;SDS011;42964;42.910;23.792;2023-12-04T17:43:45;16.55;;;13.52;;
57085;SDS011;42964;42.910;23.792;2023-12-04T17:48:44;16.52;;;13.10;;
57085;SDS011;42964;42.910;23.792;2023-12-04T17:53:45;26.02;;;17.35;;
57085;SDS011;42964;42.910;23.792;2023-12-04T17:58:44;19.25;;;14.18;;
57085;SDS011;42964;42.910;23.792;2023-12-04T18:03:43;17.15;;;12.95;;
57085;SDS011;42964;42.910;23.792;2023-12-04T18:08:42;29.50;;;19.23;;
57085;SDS011;42964;42.910;23.792;2023-12-04T18:13:41;28.30;;;18.80;;
57085;SDS011;42964;42.910;23.792;2023-12-04T18:18:40;24.30;;;18.05;;
57085;SDS011;42964;42.910;23.792;2023-12-04T18:23:39;29.20;;;20.83;;
57085;SDS011;42964;42.910;23.792;2023-12-04T18:28:39;24.75;;;16.60;;
57085;SDS011;42964;42.910;23.792;2023-12-04T18:33:38;25.58;;;16.42;;
57085;SDS011;42964;42.910;23.792;2023-12-04T18:38:45;19.42;;;13.77;;
57085;SDS011;42964;42.910;23.792;2023-12-04T18:43:49;23.70;;;15.77;;
57085;SDS011;42964;42.910;23.792;2023-12-04T18:53:48;23.98;;;17.13;;
57085;SDS011;42964;42.910;23.792;2023-12-04T19:03:46;24.90;;;17.50;;
57085;SDS011;42964;42.910;23.792;2023-12-04T19:08:45;32.88;;;19.75;;
57085;SDS011;42964;42.910;23.792;2023-12-04T19:13:44;31.95;;;20.88;;
57085;SDS011;42964;42.910;23.792;2023-12-04T19:18:43;28.02;;;21.00;;
57085;SDS011;42964;42.910;23.792;2023-12-04T19:23:42;22.75;;;15.77;;
57085;SDS011;42964;42.910;23.792;2023-12-04T19:28:41;26.63;;;18.70;;
57085;SDS011;42964;42.910;23.792;2023-12-04T19:33:42;29.02;;;19.52;;
57085;SDS011;42964;42.910;23.792;2023-12-04T19:38:41;28.85;;;19.90;;
57085;SDS011;42964;42.910;23.792;2023-12-04T19:43:40;27.17;;;18.73;;
57085;SDS011;42964;42.910;23.792;2023-12-04T19:48:39;27.77;;;18.77;;
57085;SDS011;42964;42.910;23.792;2023-12-04T19:53:38;29.65;;;20.30;;
57085;SDS011;42964;42.910;23.792;2023-12-04T19:58:37;26.58;;;17.05;;
57085;SDS011;42964;42.910;23.792;2023-12-04T20:03:36;19.00;;;13.63;;
57085;SDS011;42964;42.910;23.792;2023-12-04T20:08:35;21.10;;;14.40;;
57085;SDS011;42964;42.910;23.792;2023-12-04T20:13:34;19.27;;;14.38;;
57085;SDS011;42964;42.910;23.792;2023-12-04T20:18:34;23.60;;;14.55;;
57085;SDS011;42964;42.910;23.792;2023-12-04T20:23:34;36.33;;;23.17;;
57085;SDS011;42964;42.910;23.792;2023-12-04T20:28:33;41.45;;;24.20;;
57085;SDS011;42964;42.910;23.792;2023-12-04T20:33:32;23.02;;;13.32;;
57085;SDS011;42964;42.910;23.792;2023-12-04T20:38:31;29.15;;;18.67;;
57085;SDS011;42964;42.910;23.792;2023-12-04T20:43:30;29.42;;;19.98;;
57085;SDS011;42964;42.910;23.792;2023-12-04T20:48:32;27.85;;;19.20;;
57085;SDS011;42964;42.910;23.792;2023-12-04T20:53:32;38.22;;;21.73;;
57085;SDS011;42964;42.910;23.792;2023-12-04T20:58:31;45.10;;;27.98;;
57085;SDS011;42964;42.910;23.792;2023-12-04T21:03:30;23.23;;;17.05;;
57085;SDS011;42964;42.910;23.792;2023-12-04T21:08:29;27.95;;;17.00;;
57085;SDS011;42964;42.910;23.792;2023-12-04T21:13:28;23.42;;;14.18;;
57085;SDS011;42964;42.910;23.792;2023-12-04T21:18:27;23.95;;;17.77;;
57085;SDS011;42964;42.910;23.792;2023-12-04T21:23:26;26.05;;;16.30;;
57085;SDS011;42964;42.910;23.792;2023-12-04T21:28:25;24.30;;;14.82;;
57085;SDS011;42964;42.910;23.792;2023-12-04T21:33:24;23.20;;;15.52;;
57085;SDS011;42964;42.910;23.792;2023-12-04T21:38:24;35.38;;;20.70;;
57085;SDS011;42964;42.910;23.792;2023-12-04T21:43:23;26.35;;;16.42;;
57085;SDS011;42964;42.910;23.792;2023-12-04T21:48:21;19.13;;;13.13;;
57085;SDS011;42964;42.910;23.792;2023-12-04T21:53:22;19.80;;;14.27;;
57085;SDS011;42964;42.910;23.792;2023-12-04T21:58:21;27.25;;;17.00;;
57085;SDS011;42964;42.910;23.792;2023-12-04T22:08:18;34.05;;;18.13;;
57085;SDS011;42964;42.910;23.792;2023-12-04T22:13:18;24.75;;;17.15;;
57085;SDS011;42964;42.910;23.792;2023-12-04T22:23:15;43.65;;;26.05;;
57085;SDS011;42964;42.910;23.792;2023-12-04T22:28:15;34.35;;;22.05;;
57085;SDS011;42964;42.910;23.792;2023-12-04T22:33:14;37.35;;;23.42;;
57085;SDS011;42964;42.910;23.792;2023-12-04T22:38:14;35.90;;;22.85;;
57085;SDS011;42964;42.910;23.792;2023-12-04T22:43:13;38.08;;;22.38;;
57085;SDS011;42964;42.910;23.792;2023-12-04T22:48:12;39.58;;;24.83;;
57085;SDS011;42964;42.910;23.792;2023-12-04T22:53:11;36.22;;;22.70;;
57085;SDS011;42964;42.910;23.792;2023-12-04T22:58:09;39.80;;;23.10;;
57085;SDS011;42964;42.910;23.792;2023-12-04T23:03:08;31.83;;;20.75;;
57085;SDS011;42964;42.910;23.792;2023-12-04T23:08:08;31.58;;;20.50;;
57085;SDS011;42964;42.910;23.792;2023-12-04T23:13:06;27.83;;;17.58;;
57085;SDS011;42964;42.910;23.792;2023-12-04T23:18:05;22.40;;;14.93;;
57085;SDS011;42964;42.910;23.792;2023-12-04T23:23:04;20.70;;;13.18;;
57085;SDS011;42964;42.910;23.792;2023-12-04T23:28:03;21.92;;;12.82;;
57085;SDS011;42964;42.910;23.792;2023-12-04T23:33:02;22.98;;;12.65;;
57085;SDS011;42964;42.910;23.792;2023-12-04T23:38:01;16.98;;;12.60;;
57085;SDS011;42964;42.910;23.792;2023-12-04T23:47:59;23.52;;;12.93;;
57085;SDS011;42964;42.910;23.792;2023-12-04T23:52:58;25.92;;;15.65;;
57085;SDS011;42964;42.910;23.792;2023-12-04T23:57:57;29.98;;;17.05;;
